createdAt,value
2018-02-18T00:00:22.701Z,5.26
2018-02-18T00:01:03.378Z,5.25
2018-02-18T00:01:43.851Z,5.21
2018-02-18T00:02:24.536Z,5.14
2018-02-18T00:03:05.320Z,5.2
2018-02-18T00:03:45.897Z,5.2
2018-02-18T00:04:26.517Z,5.2
2018-02-18T00:05:07.131Z,5.26
2018-02-18T00:05:47.841Z,5.18
2018-02-18T00:06:28.405Z,5.26
2018-02-18T00:07:08.927Z,5.12
2018-02-18T00:07:49.548Z,5.26
2018-02-18T00:08:30.195Z,5.2
2018-02-18T00:09:10.847Z,5.23
2018-02-18T00:09:51.484Z,5.23
2018-02-18T00:10:32.271Z,5.26
2018-02-18T00:11:12.900Z,5.14
2018-02-18T00:11:53.585Z,5.26
2018-02-18T00:12:34.186Z,5.18
2018-02-18T00:13:14.739Z,5.15
2018-02-18T00:13:55.712Z,5.17
2018-02-18T00:14:36.264Z,5.18
2018-02-18T00:15:16.846Z,5.2
2018-02-18T00:15:57.437Z,5.18
2018-02-18T00:16:38.181Z,5.17
2018-02-18T00:17:18.701Z,5.12
2018-02-18T00:17:59.277Z,5.11
2018-02-18T00:18:39.875Z,5.07
2018-02-18T00:19:20.550Z,5.17
2018-02-18T00:20:01.235Z,5.15
2018-02-18T00:20:41.904Z,5.2
2018-02-18T00:21:22.528Z,5.17
2018-02-18T00:22:03.122Z,5.17
2018-02-18T00:22:43.750Z,5.12
2018-02-18T00:23:24.410Z,5.14
2018-02-18T00:24:05.001Z,5.11
2018-02-18T00:24:45.634Z,5.04
2018-02-18T00:25:26.173Z,5.11
2018-02-18T00:26:06.792Z,5.11
2018-02-18T00:26:47.369Z,5.1
2018-02-18T00:27:27.995Z,5.08
2018-02-18T00:28:08.587Z,5.05
2018-02-18T00:28:49.223Z,5.04
2018-02-18T00:29:29.773Z,5.1
2018-02-18T00:30:10.334Z,5.04
2018-02-18T00:30:50.954Z,5.08
2018-02-18T00:31:31.477Z,5.05
2018-02-18T00:32:12.107Z,5
2018-02-18T00:32:52.742Z,5
2018-02-18T00:33:33.379Z,4.94
2018-02-18T00:34:13.966Z,4.94
2018-02-18T00:34:54.542Z,5.05
2018-02-18T00:35:35.215Z,5
2018-02-18T00:36:15.761Z,5
2018-02-18T00:36:56.286Z,4.93
2018-02-18T00:37:37.457Z,4.92
2018-02-18T00:38:17.996Z,4.92
2018-02-18T00:38:58.563Z,4.93
2018-02-18T00:39:39.112Z,5
2018-02-18T00:40:19.678Z,4.9
2018-02-18T00:41:00.297Z,4.99
2018-02-18T00:41:40.841Z,4.92
2018-02-18T00:42:21.407Z,4.94
2018-02-18T00:43:01.983Z,4.99
2018-02-18T00:43:42.574Z,4.9
2018-02-18T00:44:23.166Z,4.99
2018-02-18T00:45:03.780Z,4.86
2018-02-18T00:45:44.386Z,4.89
2018-02-18T00:46:25.163Z,4.87
2018-02-18T00:47:05.828Z,4.9
2018-02-18T00:47:46.332Z,4.96
2018-02-18T00:48:26.912Z,4.87
2018-02-18T00:49:07.440Z,4.94
2018-02-18T00:49:47.994Z,4.87
2018-02-18T00:50:28.554Z,4.92
2018-02-18T00:51:09.242Z,4.94
2018-02-18T00:51:49.762Z,4.84
2018-02-18T00:52:30.362Z,4.89
2018-02-18T00:53:10.916Z,4.87
2018-02-18T00:53:51.456Z,4.93
2018-02-18T00:54:32.006Z,4.94
2018-02-18T00:55:12.596Z,4.86
2018-02-18T00:55:53.138Z,4.93
2018-02-18T00:56:33.692Z,4.93
2018-02-18T00:57:14.258Z,4.87
2018-02-18T00:57:54.825Z,4.9
2018-02-18T00:58:35.415Z,4.89
2018-02-18T00:59:15.947Z,4.93
2018-02-18T00:59:56.566Z,4.92
2018-02-18T01:00:37.062Z,4.87
2018-02-18T01:01:17.629Z,4.9
2018-02-18T01:01:58.165Z,4.94
2018-02-18T01:02:38.735Z,4.93
2018-02-18T01:03:19.242Z,4.99
2018-02-18T01:03:59.799Z,4.97
2018-02-18T01:04:40.303Z,4.96
2018-02-18T01:05:20.890Z,4.93
2018-02-18T01:06:01.446Z,4.94
2018-02-18T01:06:42.003Z,4.93
2018-02-18T01:07:22.562Z,5.04
2018-02-18T01:08:03.101Z,4.89
2018-02-18T01:08:43.651Z,4.92
2018-02-18T01:09:24.201Z,4.92
2018-02-18T01:10:04.741Z,5.02
2018-02-18T01:10:45.305Z,4.99
2018-02-18T01:11:25.846Z,4.92
2018-02-18T01:12:06.391Z,5.05
2018-02-18T01:12:46.927Z,5.02
2018-02-18T01:13:27.474Z,5
2018-02-18T01:14:08.029Z,4.92
2018-02-18T01:14:48.583Z,5.02
2018-02-18T01:15:29.151Z,5.04
2018-02-18T01:16:09.679Z,4.93
2018-02-18T01:16:50.252Z,4.93
2018-02-18T01:17:30.793Z,4.92
2018-02-18T01:18:11.337Z,4.92
2018-02-18T01:18:51.883Z,5
2018-02-18T01:19:32.436Z,4.93
2018-02-18T01:20:12.984Z,4.94
2018-02-18T01:20:53.550Z,4.94
2018-02-18T01:21:34.124Z,4.96
2018-02-18T01:22:14.662Z,4.99
2018-02-18T01:22:55.206Z,4.99
2018-02-18T01:23:35.756Z,4.97
2018-02-18T01:24:16.300Z,4.97
2018-02-18T01:24:56.866Z,4.96
2018-02-18T01:25:37.415Z,4.9
2018-02-18T01:26:17.951Z,4.9
2018-02-18T01:26:58.512Z,4.93
2018-02-18T01:27:39.057Z,4.92
2018-02-18T01:28:19.603Z,4.8
2018-02-18T01:29:00.153Z,4.94
2018-02-18T01:29:40.718Z,4.89
2018-02-18T01:30:21.270Z,4.87
2018-02-18T01:31:01.832Z,4.94
2018-02-18T01:31:42.395Z,4.9
2018-02-18T01:32:22.945Z,4.94
2018-02-18T01:33:03.502Z,4.87
2018-02-18T01:33:44.079Z,4.78
2018-02-18T01:34:24.630Z,4.78
2018-02-18T01:35:05.194Z,4.75
2018-02-18T01:35:45.759Z,4.89
2018-02-18T01:36:26.344Z,4.94
2018-02-18T01:37:06.895Z,4.77
2018-02-18T01:37:47.464Z,4.9
2018-02-18T01:38:27.989Z,4.92
2018-02-18T01:39:08.557Z,4.86
2018-02-18T01:39:49.103Z,4.89
2018-02-18T01:40:29.652Z,4.89
2018-02-18T01:41:10.194Z,4.84
2018-02-18T01:41:50.743Z,4.9
2018-02-18T01:42:31.297Z,4.89
2018-02-18T01:43:11.878Z,4.92
2018-02-18T01:43:52.397Z,4.93
2018-02-18T01:44:32.952Z,4.86
2018-02-18T01:45:13.503Z,4.92
2018-02-18T01:45:54.081Z,4.93
2018-02-18T01:46:34.636Z,4.96
2018-02-18T01:47:15.207Z,4.92
2018-02-18T01:47:55.758Z,4.92
2018-02-18T01:48:36.328Z,4.87
2018-02-18T01:49:16.873Z,4.94
2018-02-18T01:49:57.412Z,4.93
2018-02-18T01:50:37.979Z,4.89
2018-02-18T01:51:18.524Z,4.9
2018-02-18T01:51:59.084Z,4.96
2018-02-18T01:52:39.634Z,4.9
2018-02-18T01:53:20.182Z,4.97
2018-02-18T01:54:00.752Z,4.93
2018-02-18T01:54:41.305Z,4.96
2018-02-18T01:55:21.870Z,5
2018-02-18T01:56:02.427Z,5
2018-02-18T01:56:42.962Z,4.96
2018-02-18T01:57:23.530Z,4.86
2018-02-18T01:58:04.069Z,4.93
2018-02-18T01:58:44.633Z,4.89
2018-02-18T01:59:25.184Z,4.9
2018-02-18T02:00:05.733Z,4.93
2018-02-18T02:00:46.275Z,4.87
2018-02-18T02:01:26.838Z,4.94
2018-02-18T02:02:07.395Z,4.86
2018-02-18T02:02:47.968Z,4.94
2018-02-18T02:03:28.517Z,4.87
2018-02-18T02:04:09.071Z,4.92
2018-02-18T02:04:49.624Z,4.86
2018-02-18T02:05:30.154Z,4.93
2018-02-18T02:06:10.718Z,4.92
2018-02-18T02:06:51.279Z,4.89
2018-02-18T02:07:31.824Z,4.9
2018-02-18T02:08:12.375Z,4.92
2018-02-18T02:08:52.939Z,4.89
2018-02-18T02:09:33.497Z,4.77
2018-02-18T02:10:14.061Z,4.87
2018-02-18T02:10:54.613Z,4.75
2018-02-18T02:11:35.165Z,4.89
2018-02-18T02:12:15.714Z,4.78
2018-02-18T02:12:56.278Z,4.89
2018-02-18T02:13:36.826Z,4.75
2018-02-18T02:14:17.411Z,4.75
2018-02-18T02:14:58.094Z,4.74
2018-02-18T02:15:38.640Z,4.78
2018-02-18T02:16:19.197Z,4.78
2018-02-18T02:16:59.774Z,4.74
2018-02-18T02:17:40.350Z,4.75
2018-02-18T02:18:20.919Z,4.75
2018-02-18T02:19:01.513Z,4.73
2018-02-18T02:19:42.077Z,4.8
2018-02-18T02:20:22.645Z,4.77
2018-02-18T02:21:03.236Z,4.8
2018-02-18T02:21:43.815Z,4.73
2018-02-18T02:22:24.364Z,4.8
2018-02-18T02:23:04.928Z,4.77
2018-02-18T02:23:45.487Z,4.78
2018-02-18T02:24:26.062Z,4.77
2018-02-18T02:25:06.672Z,4.75
2018-02-18T02:25:47.247Z,4.75
2018-02-18T02:26:27.808Z,4.77
2018-02-18T02:27:08.379Z,4.77
2018-02-18T02:27:48.937Z,4.77
2018-02-18T02:28:29.507Z,4.82
2018-02-18T02:29:10.079Z,4.73
2018-02-18T02:29:50.637Z,4.78
2018-02-18T02:30:31.196Z,4.8
2018-02-18T02:31:11.747Z,4.84
2018-02-18T02:31:52.285Z,4.75
2018-02-18T02:32:32.838Z,4.74
2018-02-18T02:33:13.409Z,4.73
2018-02-18T02:33:53.960Z,4.77
2018-02-18T02:34:34.519Z,4.77
2018-02-18T02:35:15.047Z,4.74
2018-02-18T02:35:55.625Z,4.73
2018-02-18T02:36:36.172Z,4.73
2018-02-18T02:37:16.770Z,4.77
2018-02-18T02:37:57.336Z,4.78
2018-02-18T02:38:37.884Z,4.74
2018-02-18T02:39:18.437Z,4.74
2018-02-18T02:39:59.001Z,4.74
2018-02-18T02:40:39.557Z,4.8
2018-02-18T02:41:20.105Z,4.74
2018-02-18T02:42:00.661Z,4.73
2018-02-18T02:42:41.228Z,4.89
2018-02-18T02:43:21.760Z,4.92
2018-02-18T02:44:02.305Z,4.92
2018-02-18T02:44:42.866Z,4.92
2018-02-18T02:45:23.428Z,4.92
2018-02-18T02:46:03.972Z,4.94
2018-02-18T02:46:44.520Z,4.87
2018-02-18T02:47:25.073Z,4.9
2018-02-18T02:48:05.655Z,4.89
2018-02-18T02:48:46.198Z,4.92
2018-02-18T02:49:26.745Z,4.99
2018-02-18T02:50:07.321Z,4.92
2018-02-18T02:50:47.880Z,4.93
2018-02-18T02:51:28.453Z,5
2018-02-18T02:52:09.017Z,4.94
2018-02-18T02:52:49.576Z,4.93
2018-02-18T02:53:30.123Z,4.96
2018-02-18T02:54:10.679Z,4.99
2018-02-18T02:54:51.240Z,4.94
2018-02-18T02:55:31.798Z,4.89
2018-02-18T02:56:12.336Z,4.94
2018-02-18T02:56:52.884Z,4.89
2018-02-18T02:57:33.432Z,4.97
2018-02-18T02:58:13.978Z,5.02
2018-02-18T02:58:54.544Z,4.94
2018-02-18T02:59:35.093Z,4.92
2018-02-18T03:00:15.638Z,4.94
2018-02-18T03:00:56.195Z,4.93
2018-02-18T03:01:36.745Z,4.96
2018-02-18T03:02:17.297Z,4.96
2018-02-18T03:02:57.848Z,4.96
2018-02-18T03:03:38.414Z,4.93
2018-02-18T03:04:18.962Z,4.96
2018-02-18T03:04:59.505Z,4.94
2018-02-18T03:05:40.069Z,4.9
2018-02-18T03:06:20.625Z,4.9
2018-02-18T03:07:01.182Z,4.99
2018-02-18T03:07:41.769Z,4.99
2018-02-18T03:08:22.334Z,4.94
2018-02-18T03:09:02.884Z,4.93
2018-02-18T03:09:43.467Z,4.93
2018-02-18T03:10:23.995Z,4.9
2018-02-18T03:11:04.550Z,4.93
2018-02-18T03:11:45.118Z,4.96
2018-02-18T03:12:25.662Z,4.93
2018-02-18T03:13:06.220Z,4.99
2018-02-18T03:13:46.772Z,4.9
2018-02-18T03:14:27.326Z,4.94
2018-02-18T03:15:07.876Z,4.92
2018-02-18T03:15:48.438Z,4.92
2018-02-18T03:16:28.981Z,4.93
2018-02-18T03:17:09.525Z,4.96
2018-02-18T03:17:50.080Z,4.94
2018-02-18T03:18:30.629Z,4.92
2018-02-18T03:19:11.183Z,4.92
2018-02-18T03:19:51.735Z,4.99
2018-02-18T03:20:32.288Z,4.94
2018-02-18T03:21:12.837Z,4.93
2018-02-18T03:21:53.392Z,4.9
2018-02-18T03:22:33.944Z,4.9
2018-02-18T03:23:14.497Z,4.94
2018-02-18T03:23:55.043Z,4.94
2018-02-18T03:24:35.590Z,4.87
2018-02-18T03:25:16.145Z,4.89
2018-02-18T03:25:56.707Z,4.87
2018-02-18T03:26:37.270Z,4.86
2018-02-18T03:27:17.891Z,4.87
2018-02-18T03:27:58.447Z,4.86
2018-02-18T03:28:39.014Z,4.9
2018-02-18T03:29:19.575Z,4.74
2018-02-18T03:30:00.127Z,4.75
2018-02-18T03:30:40.671Z,4.77
2018-02-18T03:31:21.211Z,4.89
2018-02-18T03:32:01.789Z,4.75
2018-02-18T03:32:42.403Z,4.73
2018-02-18T03:33:22.944Z,4.74
2018-02-18T03:34:03.499Z,4.82
2018-02-18T03:34:44.066Z,4.78
2018-02-18T03:35:24.624Z,4.77
2018-02-18T03:36:05.163Z,4.78
2018-02-18T03:36:45.731Z,4.77
2018-02-18T03:37:26.276Z,4.77
2018-02-18T03:38:06.882Z,4.77
2018-02-18T03:38:47.429Z,4.77
2018-02-18T03:39:27.977Z,4.71
2018-02-18T03:40:08.547Z,4.75
2018-02-18T03:40:49.099Z,4.7
2018-02-18T03:41:29.660Z,4.7
2018-02-18T03:42:10.236Z,4.74
2018-02-18T03:42:50.780Z,4.7
2018-02-18T03:43:31.349Z,4.74
2018-02-18T03:44:11.904Z,4.68
2018-02-18T03:44:52.459Z,4.7
2018-02-18T03:45:33.077Z,4.66
2018-02-18T03:46:13.621Z,4.6
2018-02-18T03:46:54.182Z,4.59
2018-02-18T03:47:34.719Z,4.6
2018-02-18T03:48:15.280Z,4.62
2018-02-18T03:48:55.824Z,4.68
2018-02-18T03:49:36.377Z,4.66
2018-02-18T03:50:16.944Z,4.7
2018-02-18T03:50:57.504Z,4.7
2018-02-18T03:51:38.068Z,4.68
2018-02-18T03:52:18.620Z,4.73
2018-02-18T03:52:59.223Z,4.71
2018-02-18T03:53:39.789Z,4.71
2018-02-18T03:54:20.347Z,4.74
2018-02-18T03:55:00.912Z,4.7
2018-02-18T03:55:41.460Z,4.7
2018-02-18T03:56:22.011Z,4.73
2018-02-18T03:57:02.574Z,4.73
2018-02-18T03:57:43.137Z,4.74
2018-02-18T03:58:23.679Z,4.68
2018-02-18T03:59:04.225Z,4.7
2018-02-18T03:59:44.768Z,4.68
2018-02-18T04:00:25.343Z,4.73
2018-02-18T04:01:05.922Z,4.67
2018-02-18T04:01:46.549Z,4.73
2018-02-18T04:02:27.227Z,4.68
2018-02-18T04:03:07.789Z,4.68
2018-02-18T04:03:48.365Z,4.73
2018-02-18T04:04:28.934Z,4.77
2018-02-18T04:05:09.479Z,4.75
2018-02-18T04:05:50.028Z,4.78
2018-02-18T04:06:30.581Z,4.7
2018-02-18T04:07:11.171Z,4.74
2018-02-18T04:07:51.798Z,4.77
2018-02-18T04:08:32.709Z,4.74
2018-02-18T04:09:13.505Z,4.75
2018-02-18T04:09:54.035Z,4.77
2018-02-18T04:10:34.605Z,4.89
2018-02-18T04:11:15.178Z,4.78
2018-02-18T04:11:55.829Z,4.73
2018-02-18T04:12:36.409Z,4.92
2018-02-18T04:13:16.975Z,4.86
2018-02-18T04:13:57.636Z,4.87
2018-02-18T04:14:38.237Z,4.93
2018-02-18T04:15:18.836Z,4.75
2018-02-18T04:15:59.389Z,4.71
2018-02-18T04:16:39.936Z,4.77
2018-02-18T04:17:20.544Z,4.74
2018-02-18T04:18:01.179Z,4.77
2018-02-18T04:18:41.742Z,4.77
2018-02-18T04:19:22.272Z,4.8
2018-02-18T04:20:02.830Z,4.78
2018-02-18T04:20:43.389Z,4.74
2018-02-18T04:21:23.935Z,4.75
2018-02-18T04:22:04.560Z,4.8
2018-02-18T04:22:45.069Z,4.78
2018-02-18T04:23:25.635Z,4.84
2018-02-18T04:24:06.189Z,4.73
2018-02-18T04:24:46.760Z,4.86
2018-02-18T04:25:27.317Z,4.8
2018-02-18T04:26:07.899Z,4.75
2018-02-18T04:26:48.505Z,4.8
2018-02-18T04:27:29.016Z,4.8
2018-02-18T04:28:09.567Z,4.78
2018-02-18T04:28:50.154Z,4.84
2018-02-18T04:29:30.736Z,4.75
2018-02-18T04:30:11.268Z,4.78
2018-02-18T04:30:51.821Z,4.74
2018-02-18T04:31:32.445Z,4.86
2018-02-18T04:32:13.025Z,4.75
2018-02-18T04:32:53.591Z,4.92
2018-02-18T04:33:34.153Z,4.9
2018-02-18T04:34:14.759Z,4.89
2018-02-18T04:34:55.329Z,4.89
2018-02-18T04:35:35.904Z,4.9
2018-02-18T04:36:16.456Z,4.97
2018-02-18T04:36:57.024Z,4.99
2018-02-18T04:37:37.584Z,4.97
2018-02-18T04:38:18.132Z,4.93
2018-02-18T04:38:58.693Z,4.94
2018-02-18T04:39:39.243Z,4.97
2018-02-18T04:40:19.796Z,4.94
2018-02-18T04:41:00.348Z,4.92
2018-02-18T04:41:40.901Z,4.86
2018-02-18T04:42:21.445Z,4.89
2018-02-18T04:43:02.005Z,4.92
2018-02-18T04:43:42.554Z,4.9
2018-02-18T04:44:23.105Z,4.94
2018-02-18T04:45:03.665Z,4.92
2018-02-18T04:45:44.227Z,4.92
2018-02-18T04:46:24.765Z,4.87
2018-02-18T04:47:05.319Z,4.96
2018-02-18T04:47:45.870Z,4.92
2018-02-18T04:48:26.415Z,4.97
2018-02-18T04:49:06.965Z,4.94
2018-02-18T04:49:47.512Z,4.96
2018-02-18T04:50:28.067Z,4.9
2018-02-18T04:51:08.626Z,4.93
2018-02-18T04:51:49.169Z,4.94
2018-02-18T04:52:29.706Z,4.9
2018-02-18T04:53:10.315Z,4.99
2018-02-18T04:53:50.881Z,4.97
2018-02-18T04:54:31.416Z,4.94
2018-02-18T04:55:11.966Z,4.96
2018-02-18T04:55:52.531Z,4.96
2018-02-18T04:56:33.107Z,5.05
2018-02-18T04:57:13.661Z,4.97
2018-02-18T04:57:54.212Z,4.9
2018-02-18T04:58:34.810Z,4.97
2018-02-18T04:59:15.448Z,5.02
2018-02-18T04:59:55.994Z,4.92
2018-02-18T05:00:36.542Z,4.92
2018-02-18T05:01:17.092Z,4.92
2018-02-18T05:01:57.651Z,4.93
2018-02-18T05:02:38.195Z,4.93
2018-02-18T05:03:18.745Z,4.96
2018-02-18T05:03:59.295Z,5.05
2018-02-18T05:04:39.849Z,4.92
2018-02-18T05:05:20.401Z,4.99
2018-02-18T05:06:00.963Z,4.92
2018-02-18T05:06:41.515Z,4.93
2018-02-18T05:07:22.057Z,4.97
2018-02-18T05:08:02.621Z,4.92
2018-02-18T05:08:43.159Z,4.96
2018-02-18T05:09:23.719Z,4.97
2018-02-18T05:10:04.267Z,4.93
2018-02-18T05:10:44.811Z,5
2018-02-18T05:11:25.379Z,4.87
2018-02-18T05:12:05.930Z,4.93
2018-02-18T05:12:46.492Z,4.9
2018-02-18T05:13:27.055Z,4.92
2018-02-18T05:14:07.616Z,4.93
2018-02-18T05:14:48.168Z,4.94
2018-02-18T05:15:28.718Z,4.93
2018-02-18T05:16:09.290Z,4.94
2018-02-18T05:16:49.849Z,4.9
2018-02-18T05:17:30.398Z,4.92
2018-02-18T05:18:10.937Z,4.94
2018-02-18T05:18:51.491Z,4.99
2018-02-18T05:19:32.065Z,4.94
2018-02-18T05:20:12.611Z,4.94
2018-02-18T05:20:53.154Z,4.87
2018-02-18T05:21:33.705Z,5.02
2018-02-18T05:22:14.260Z,4.93
2018-02-18T05:22:54.811Z,4.94
2018-02-18T05:23:35.369Z,4.96
2018-02-18T05:24:15.903Z,4.93
2018-02-18T05:24:56.468Z,4.97
2018-02-18T05:25:37.023Z,4.93
2018-02-18T05:26:17.569Z,4.93
2018-02-18T05:26:58.123Z,4.93
2018-02-18T05:27:38.684Z,4.94
2018-02-18T05:28:19.245Z,4.96
2018-02-18T05:28:59.798Z,4.94
2018-02-18T05:29:40.350Z,4.96
2018-02-18T05:30:20.912Z,4.94
2018-02-18T05:31:01.490Z,4.96
2018-02-18T05:31:42.057Z,4.92
2018-02-18T05:32:22.610Z,4.94
2018-02-18T05:33:03.168Z,4.99
2018-02-18T05:33:43.731Z,4.97
2018-02-18T05:34:24.289Z,5
2018-02-18T05:35:04.841Z,4.87
2018-02-18T05:35:45.402Z,4.94
2018-02-18T05:36:25.930Z,4.94
2018-02-18T05:37:06.488Z,4.94
2018-02-18T05:37:47.057Z,4.94
2018-02-18T05:38:27.619Z,4.94
2018-02-18T05:39:08.176Z,4.92
2018-02-18T05:39:48.724Z,4.9
2018-02-18T05:40:29.296Z,4.87
2018-02-18T05:41:09.854Z,4.92
2018-02-18T05:41:50.408Z,4.92
2018-02-18T05:42:30.971Z,4.8
2018-02-18T05:43:11.513Z,4.92
2018-02-18T05:43:52.063Z,4.87
2018-02-18T05:44:32.636Z,4.74
2018-02-18T05:45:13.217Z,4.9
2018-02-18T05:45:53.762Z,4.89
2018-02-18T05:46:34.300Z,4.89
2018-02-18T05:47:14.860Z,4.82
2018-02-18T05:47:55.416Z,4.9
2018-02-18T05:48:35.989Z,4.92
2018-02-18T05:49:16.541Z,4.82
2018-02-18T05:49:57.109Z,4.78
2018-02-18T05:50:37.660Z,4.78
2018-02-18T05:51:18.214Z,4.74
2018-02-18T05:51:58.772Z,4.77
2018-02-18T05:52:39.330Z,4.78
2018-02-18T05:53:19.909Z,4.77
2018-02-18T05:54:00.486Z,4.75
2018-02-18T05:54:41.000Z,4.75
2018-02-18T05:55:21.600Z,4.74
2018-02-18T05:56:02.151Z,4.74
2018-02-18T05:56:42.705Z,4.73
2018-02-18T05:57:23.260Z,4.75
2018-02-18T05:58:03.810Z,4.74
2018-02-18T05:58:44.356Z,4.73
2018-02-18T05:59:24.906Z,4.78
2018-02-18T06:00:05.460Z,4.73
2018-02-18T06:00:46.011Z,4.75
2018-02-18T06:01:26.563Z,4.68
2018-02-18T06:02:07.120Z,4.73
2018-02-18T06:02:47.669Z,4.73
2018-02-18T06:03:28.307Z,4.68
2018-02-18T06:04:08.865Z,4.75
2018-02-18T06:04:49.429Z,4.7
2018-02-18T06:05:29.977Z,4.71
2018-02-18T06:06:10.565Z,4.66
2018-02-18T06:06:51.139Z,4.73
2018-02-18T06:07:31.699Z,4.68
2018-02-18T06:08:12.262Z,4.73
2018-02-18T06:08:52.809Z,4.77
2018-02-18T06:09:33.350Z,4.74
2018-02-18T06:10:13.910Z,4.75
2018-02-18T06:10:54.463Z,4.73
2018-02-18T06:11:35.014Z,4.7
2018-02-18T06:12:15.556Z,4.8
2018-02-18T06:12:56.113Z,4.75
2018-02-18T06:13:36.677Z,4.73
2018-02-18T06:14:17.224Z,4.75
2018-02-18T06:14:57.785Z,4.78
2018-02-18T06:15:38.349Z,4.75
2018-02-18T06:16:18.927Z,4.75
2018-02-18T06:16:59.490Z,4.71
2018-02-18T06:17:40.047Z,4.77
2018-02-18T06:18:20.741Z,4.71
2018-02-18T06:19:01.288Z,4.7
2018-02-18T06:19:41.846Z,4.67
2018-02-18T06:20:22.440Z,4.73
2018-02-18T06:21:02.993Z,4.68
2018-02-18T06:21:43.547Z,4.77
2018-02-18T06:22:24.109Z,4.77
2018-02-18T06:23:04.695Z,4.75
2018-02-18T06:23:45.208Z,4.74
2018-02-18T06:24:25.768Z,4.7
2018-02-18T06:25:06.398Z,4.74
2018-02-18T06:25:46.951Z,4.73
2018-02-18T06:26:27.501Z,4.68
2018-02-18T06:27:08.054Z,4.73
2018-02-18T06:27:48.603Z,4.7
2018-02-18T06:28:29.161Z,4.75
2018-02-18T06:29:09.707Z,4.71
2018-02-18T06:29:50.264Z,4.75
2018-02-18T06:30:30.826Z,4.71
2018-02-18T06:31:11.387Z,4.8
2018-02-18T06:31:51.941Z,4.77
2018-02-18T06:32:32.547Z,4.78
2018-02-18T06:33:13.096Z,4.73
2018-02-18T06:33:53.639Z,4.8
2018-02-18T06:34:34.198Z,4.71
2018-02-18T06:35:14.756Z,4.82
2018-02-18T06:35:55.315Z,4.86
2018-02-18T06:36:35.874Z,4.87
2018-02-18T06:37:16.420Z,4.93
2018-02-18T06:37:56.979Z,4.89
2018-02-18T06:38:37.543Z,4.92
2018-02-18T06:39:18.110Z,4.99
2018-02-18T06:39:58.680Z,4.97
2018-02-18T06:40:39.241Z,4.97
2018-02-18T06:41:19.802Z,4.99
2018-02-18T06:42:00.358Z,4.99
2018-02-18T06:42:40.912Z,4.94
2018-02-18T06:43:21.459Z,4.96
2018-02-18T06:44:02.003Z,4.99
2018-02-18T06:44:42.560Z,4.99
2018-02-18T06:45:23.120Z,4.96
2018-02-18T06:46:03.676Z,5.02
2018-02-18T06:46:44.245Z,4.96
2018-02-18T06:47:24.815Z,4.94
2018-02-18T06:48:05.366Z,4.97
2018-02-18T06:48:45.933Z,4.94
2018-02-18T06:49:26.452Z,4.99
2018-02-18T06:50:07.645Z,4.97
2018-02-18T06:50:48.206Z,4.94
2018-02-18T06:51:28.817Z,4.94
2018-02-18T06:52:09.365Z,4.96
2018-02-18T06:52:49.920Z,5.05
2018-02-18T06:53:30.453Z,4.94
2018-02-18T06:54:11.001Z,4.96
2018-02-18T06:54:51.556Z,4.94
2018-02-18T06:55:32.110Z,4.93
2018-02-18T06:56:12.673Z,4.93
2018-02-18T06:56:53.224Z,4.96
2018-02-18T06:57:33.773Z,4.97
2018-02-18T06:58:14.347Z,4.96
2018-02-18T06:58:54.902Z,4.94
2018-02-18T06:59:35.487Z,4.96
2018-02-18T07:00:16.041Z,4.92
2018-02-18T07:00:56.608Z,4.94
2018-02-18T07:01:37.157Z,4.96
2018-02-18T07:02:17.721Z,4.93
2018-02-18T07:02:58.256Z,4.92
2018-02-18T07:03:38.809Z,4.92
2018-02-18T07:04:19.375Z,4.94
2018-02-18T07:04:59.925Z,4.92
2018-02-18T07:05:40.479Z,4.94
2018-02-18T07:06:21.026Z,4.92
2018-02-18T07:07:01.592Z,4.96
2018-02-18T07:07:42.140Z,4.94
2018-02-18T07:08:22.717Z,4.94
2018-02-18T07:09:03.285Z,4.93
2018-02-18T07:09:43.859Z,4.92
2018-02-18T07:10:24.414Z,4.96
2018-02-18T07:11:04.988Z,4.92
2018-02-18T07:11:45.533Z,4.93
2018-02-18T07:12:26.101Z,4.99
2018-02-18T07:13:06.651Z,5.05
2018-02-18T07:13:47.202Z,5.04
2018-02-18T07:14:27.769Z,5
2018-02-18T07:15:08.375Z,5
2018-02-18T07:15:48.936Z,5
2018-02-18T07:16:29.500Z,5
2018-02-18T07:17:10.055Z,4.96
2018-02-18T07:17:50.614Z,5.07
2018-02-18T07:18:31.162Z,5.05
2018-02-18T07:19:11.762Z,5.12
2018-02-18T07:19:52.330Z,5.05
2018-02-18T07:20:32.872Z,5.02
2018-02-18T07:21:13.442Z,5.04
2018-02-18T07:21:54.308Z,5
2018-02-18T07:22:34.948Z,5.05
2018-02-18T07:23:15.609Z,4.97
2018-02-18T07:23:56.566Z,5.1
2018-02-18T07:24:38.020Z,5
2018-02-18T07:25:19.316Z,5.11
2018-02-18T07:26:00.711Z,5.08
2018-02-18T07:26:42.321Z,5.07
2018-02-18T07:27:23.331Z,5.08
2018-02-18T07:28:04.433Z,5.05
2018-02-18T07:28:45.682Z,5.1
2018-02-18T07:29:26.333Z,5.1
2018-02-18T07:30:06.909Z,5.11
2018-02-18T07:30:47.937Z,5.05
2018-02-18T07:31:28.525Z,5.04
2018-02-18T07:32:09.329Z,5.04
2018-02-18T07:32:50.087Z,5.17
2018-02-18T07:33:30.627Z,5.17
2018-02-18T07:34:11.191Z,5.07
2018-02-18T07:34:51.747Z,5.17
2018-02-18T07:35:32.420Z,5.1
2018-02-18T07:36:13.089Z,5.08
2018-02-18T07:36:53.661Z,5.08
2018-02-18T07:37:34.313Z,5.07
2018-02-18T07:38:15.154Z,5.05
2018-02-18T07:38:55.711Z,5.04
2018-02-18T07:39:36.296Z,5.07
2018-02-18T07:40:16.946Z,5.1
2018-02-18T07:40:57.515Z,5.02
2018-02-18T07:41:38.079Z,5.12
2018-02-18T07:42:18.622Z,5.05
2018-02-18T07:42:59.206Z,5.1
2018-02-18T07:43:39.727Z,5.05
2018-02-18T07:44:20.270Z,5.1
2018-02-18T07:45:00.831Z,5.08
2018-02-18T07:45:41.411Z,5.07
2018-02-18T07:46:21.950Z,5.08
2018-02-18T07:47:02.578Z,5.11
2018-02-18T07:47:43.128Z,5.1
2018-02-18T07:48:23.683Z,5.08
2018-02-18T07:49:04.384Z,5.05
2018-02-18T07:49:44.978Z,5.04
2018-02-18T07:50:25.535Z,5.04
2018-02-18T07:51:06.279Z,5.08
2018-02-18T07:51:46.822Z,5.14
2018-02-18T07:52:27.375Z,5.08
2018-02-18T07:53:07.961Z,5.05
2018-02-18T07:53:48.708Z,5.07
2018-02-18T07:54:29.479Z,5.1
2018-02-18T07:55:10.092Z,5.12
2018-02-18T07:55:50.650Z,5.17
2018-02-18T07:56:31.202Z,5.14
2018-02-18T07:57:11.795Z,5.12
2018-02-18T07:57:52.494Z,5.2
2018-02-18T07:58:33.670Z,5.1
2018-02-18T07:59:14.166Z,5.17
2018-02-18T07:59:55.159Z,5.26
2018-02-18T08:00:36.257Z,5.17
2018-02-18T08:01:16.840Z,5.14
2018-02-18T08:01:57.910Z,5.2
2018-02-18T08:02:38.408Z,5.25
2018-02-18T08:03:18.968Z,5.25
2018-02-18T08:03:59.522Z,5.15
2018-02-18T08:04:40.124Z,5.17
2018-02-18T08:05:21.658Z,5.17
2018-02-18T08:06:02.371Z,5.2
2018-02-18T08:06:43.619Z,5.15
2018-02-18T08:07:24.431Z,5.2
2018-02-18T08:08:05.385Z,5.25
2018-02-18T08:08:46.131Z,5.21
2018-02-18T08:09:26.785Z,5.28
2018-02-18T08:10:07.404Z,5.29
2018-02-18T08:10:47.979Z,5.3
2018-02-18T08:11:28.652Z,5.29
2018-02-18T08:12:09.380Z,5.29
2018-02-18T08:12:51.215Z,5.3
2018-02-18T08:13:33.227Z,5.25
2018-02-18T08:14:14.315Z,5.28
2018-02-18T08:14:56.274Z,5.29
2018-02-18T08:15:38.092Z,5.23
2018-02-18T08:16:20.171Z,5.26
2018-02-18T08:17:02.919Z,5.2
2018-02-18T08:17:44.505Z,5.23
2018-02-18T08:18:25.112Z,5.23
2018-02-18T08:19:06.208Z,5.26
2018-02-18T08:19:46.836Z,5.21
2018-02-18T08:20:27.457Z,5.29
2018-02-18T08:21:08.314Z,5.23
2018-02-18T08:21:48.838Z,5.28
2018-02-18T08:22:29.624Z,5.23
2018-02-18T08:23:10.216Z,5.26
2018-02-18T08:23:51.562Z,5.29
2018-02-18T08:24:34.853Z,5.23
2018-02-18T08:25:16.698Z,5.26
2018-02-18T08:25:58.978Z,5.25
2018-02-18T08:26:39.538Z,5.23
2018-02-18T08:27:20.391Z,5.26
2018-02-18T08:28:01.015Z,5.28
2018-02-18T08:28:41.713Z,5.29
2018-02-18T08:29:22.317Z,5.26
2018-02-18T08:30:02.884Z,5.26
2018-02-18T08:30:43.470Z,5.32
2018-02-18T08:31:24.047Z,5.26
2018-02-18T08:32:06.364Z,5.29
2018-02-18T08:32:47.082Z,5.21
2018-02-18T08:33:27.876Z,5.29
2018-02-18T08:34:08.461Z,5.23
2018-02-18T08:34:49.039Z,5.26
2018-02-18T08:35:29.604Z,5.3
2018-02-18T08:36:10.266Z,5.29
2018-02-18T08:36:50.951Z,5.3
2018-02-18T08:37:31.564Z,5.28
2018-02-18T08:38:12.429Z,5.29
2018-02-18T08:38:53.287Z,5.3
2018-02-18T08:39:33.857Z,5.28
2018-02-18T08:40:14.393Z,5.3
2018-02-18T08:40:54.953Z,5.3
2018-02-18T08:41:35.596Z,5.32
2018-02-18T08:42:17.088Z,5.29
2018-02-18T08:42:58.393Z,5.3
2018-02-18T08:43:39.014Z,5.29
2018-02-18T08:44:19.733Z,5.21
2018-02-18T08:45:00.569Z,5.25
2018-02-18T08:45:42.945Z,5.15
2018-02-18T08:46:23.577Z,5.29
2018-02-18T08:47:04.200Z,5.25
2018-02-18T08:47:44.812Z,5.17
2018-02-18T08:48:25.736Z,5.14
2018-02-18T08:49:06.576Z,5.15
2018-02-18T08:49:47.326Z,5.26
2018-02-18T08:50:28.001Z,5.28
2018-02-18T08:51:08.733Z,5.28
2018-02-18T08:51:49.323Z,5.28
2018-02-18T08:52:29.905Z,5.2
2018-02-18T08:53:10.488Z,5.26
2018-02-18T08:53:51.066Z,5.28
2018-02-18T08:54:31.635Z,5.29
2018-02-18T08:55:12.222Z,5.21
2018-02-18T08:55:53.213Z,5.26
2018-02-18T08:56:33.829Z,5.21
2018-02-18T08:57:14.362Z,5.25
2018-02-18T08:57:54.906Z,5.21
2018-02-18T08:58:35.780Z,5.21
2018-02-18T08:59:16.346Z,5.21
2018-02-18T08:59:57.410Z,5.17
2018-02-18T09:00:37.977Z,5.25
2018-02-18T09:01:18.513Z,5.2
2018-02-18T09:01:59.070Z,5.25
2018-02-18T09:02:39.644Z,5.23
2018-02-18T09:03:20.193Z,5.21
2018-02-18T09:04:01.002Z,5.21